»·PEaware :: N3891R KVNY-KONT

N3891R :: KVNY-KONT

FLIGHT INFORMATION

Flight Status: Arrived
Operator: Privately registered:
United States
More flights under this callsign
Pilot: Markus B. (22479)
Aircraft: BEECH AIRCRAFT BARON
(BE58)
More flights by this aircraft type
Origin: KVNY Van Nuys
United States
Destination: KONT Ontario Intl
United States
More flights between these airports :: More routes between these airports
Route: +ADAMM3 V186 PDZ
File this flight plan on PilotEdge
Remarks: BURP8
Altitude:
(Current/Filed)
5,000ft
Speed:
(Current/Filed)
180kts
Departed: 18-Oct-20 09:08 AM
Arrived: 18-Oct-20 09:31 AM
Distance/Time
Traveled:
45nm/0:23
Distance/Time
To Go:
Arrived

Flight Plot

Page will automatically refresh every two minutes.

Flight plan parsing failed; only flown route is shown


Map Options




Map Legend


Flown Route
Filed Route
Departure Airport
Arrival Airport
Navaid (VOR, NDB)
Fix

Horizontal Profiles

Position Reports

Time Latitude Longitude Heading Altitude Ground
Speed
18-Oct-20 08:32 34.206277 -118.492944 75 806ft 0kts
18-Oct-20 08:33 34.206277 -118.492944 75 806ft 0kts
18-Oct-20 08:34 34.206277 -118.492944 75 806ft 0kts
18-Oct-20 08:35 34.206277 -118.492944 75 806ft 0kts
18-Oct-20 08:36 34.206277 -118.492944 75 806ft 0kts
18-Oct-20 08:37 34.206277 -118.492944 75 806ft 0kts
18-Oct-20 08:38 34.206277 -118.492944 75 806ft 0kts
18-Oct-20 08:39 34.206277 -118.492944 75 806ft 0kts
18-Oct-20 08:40 34.206277 -118.492944 75 806ft 0kts
18-Oct-20 08:41 34.206277 -118.492944 75 806ft 0kts
18-Oct-20 08:42 34.206277 -118.492944 75 806ft 0kts
18-Oct-20 08:43 34.206277 -118.492944 75 806ft 0kts
18-Oct-20 08:44 34.206277 -118.492944 75 806ft 0kts
18-Oct-20 08:45 34.206277 -118.492944 75 806ft 0kts
18-Oct-20 08:46 34.206277 -118.492944 75 806ft 0kts
18-Oct-20 08:47 34.206277 -118.492944 75 806ft 0kts
18-Oct-20 08:48 34.206277 -118.492944 75 806ft 0kts
18-Oct-20 08:49 34.206277 -118.492944 75 806ft 0kts
18-Oct-20 08:50 34.206277 -118.492944 75 806ft 0kts
18-Oct-20 08:51 34.206277 -118.492944 75 806ft 0kts
18-Oct-20 08:52 34.206277 -118.492944 75 806ft 0kts
18-Oct-20 08:53 34.206277 -118.492944 75 806ft 0kts
18-Oct-20 08:54 34.206277 -118.492944 75 806ft 0kts
18-Oct-20 08:55 34.206277 -118.492944 75 806ft 0kts
18-Oct-20 08:56 34.206277 -118.492944 75 806ft 0kts
18-Oct-20 08:57 34.206277 -118.492944 75 806ft 0kts
18-Oct-20 08:58 34.206277 -118.492944 75 806ft 0kts
18-Oct-20 08:59 34.206277 -118.492944 75 806ft 0kts
18-Oct-20 09:00 34.207272 -118.491298 354 806ft 14kts
18-Oct-20 09:01 34.213473 -118.491901 355 806ft 24kts
18-Oct-20 09:02 34.217983 -118.492340 354 806ft 11kts
18-Oct-20 09:03 34.218580 -118.492278 35 806ft 0kts
18-Oct-20 09:04 34.218580 -118.492278 35 806ft 0kts
18-Oct-20 09:05 34.218580 -118.492278 35 806ft 0kts
18-Oct-20 09:06 34.218700 -118.492148 49 806ft 9kts
18-Oct-20 09:07 34.201685 -118.489567 177 1147ft 120kts
18-Oct-20 09:08 34.172984 -118.477168 127 2390ft 127kts
18-Oct-20 09:09 34.151438 -118.442137 126 3729ft 139kts
18-Oct-20 09:10 34.132730 -118.395220 92 4200ft 161kts
18-Oct-20 09:11 34.133178 -118.341071 89 4908ft 163kts
18-Oct-20 09:12 34.133910 -118.283051 89 4954ft 182kts
18-Oct-20 09:13 34.134711 -118.221390 89 4933ft 183kts
18-Oct-20 09:14 34.135528 -118.159887 89 4925ft 183kts
18-Oct-20 09:15 34.120417 -118.103757 123 4897ft 185kts
18-Oct-20 09:16 34.092450 -118.052479 123 4915ft 184kts
18-Oct-20 09:17 34.072650 -117.996219 111 4926ft 182kts
18-Oct-20 09:18 34.054279 -117.938801 111 4904ft 183kts
18-Oct-20 09:19 34.036189 -117.881444 109 4906ft 183kts
18-Oct-20 09:20 34.024427 -117.821767 102 4908ft 183kts
18-Oct-20 09:21 34.012927 -117.761986 102 4905ft 183kts
18-Oct-20 09:22 34.010356 -117.698616 89 4405ft 196kts
18-Oct-20 09:23 34.010296 -117.631810 89 3666ft 201kts
18-Oct-20 09:25 34.009770 -117.581692 93 2524ft 120kts
18-Oct-20 09:26 34.007026 -117.544606 96 2061ft 111kts
18-Oct-20 09:27 34.020888 -117.520406 3 1874ft 112kts
18-Oct-20 09:28 34.052581 -117.519528 320 1521ft 107kts
18-Oct-20 09:29 34.054849 -117.557760 271 1338ft 115kts
18-Oct-20 09:30 34.054909 -117.590605 270 919ft 52kts
18-Oct-20 09:31 34.053965 -117.594693 243 915ft 1kts
18-Oct-20 09:32 34.053637 -117.602347 218 915ft 20kts

Navigation Log

Ident Type
Flight plan parsing failed, navigation log unavailable